createdAt,value
2018-01-10T00:02:04.705Z,22.27
2018-01-10T00:04:34.410Z,22.62
2018-01-10T00:07:01.348Z,23.25
2018-01-10T00:09:28.316Z,22.50
2018-01-10T00:11:55.248Z,21.77
2018-01-10T00:14:22.195Z,28.42
2018-01-10T00:16:49.142Z,26.80
2018-01-10T00:19:16.104Z,22.33
2018-01-10T00:21:43.049Z,24.17
2018-01-10T00:24:10.013Z,30.52
2018-01-10T00:26:37.727Z,23.52
2018-01-10T00:29:04.680Z,25.50
2018-01-10T00:31:31.633Z,39.40
2018-01-10T00:33:58.606Z,21.90
2018-01-10T00:36:27.533Z,24.70
2018-01-10T00:38:54.571Z,25.52
2018-01-10T00:41:21.521Z,24.30
2018-01-10T00:43:48.490Z,22.10
2018-01-10T00:46:15.424Z,23.73
2018-01-10T00:48:43.309Z,24.75
2018-01-10T00:51:10.260Z,25.17
2018-01-10T00:53:37.242Z,24.45
2018-01-10T00:56:04.964Z,24.23
2018-01-10T00:58:31.908Z,22.80
2018-01-10T01:00:58.863Z,21.27
2018-01-10T01:03:25.836Z,25.37
2018-01-10T01:05:53.545Z,20.08
2018-01-10T01:08:20.508Z,25.58
2018-01-10T01:10:47.445Z,21.90
2018-01-10T01:13:14.387Z,20.73
2018-01-10T01:15:41.512Z,24.50
2018-01-10T01:18:08.464Z,23.80
2018-01-10T01:20:35.412Z,30.90
2018-01-10T01:23:02.368Z,22.55
2018-01-10T01:25:31.235Z,25.40
2018-01-10T01:27:58.191Z,26.98
2018-01-10T01:30:25.132Z,20.62
2018-01-10T01:32:52.085Z,22.30
2018-01-10T01:35:19.033Z,26.12
2018-01-10T01:37:45.988Z,23.33
2018-01-10T01:40:12.976Z,25.45
2018-01-10T01:42:39.924Z,22.75
2018-01-10T01:45:07.624Z,22.20
2018-01-10T01:47:34.577Z,22.55
2018-01-10T01:50:01.524Z,23.45
2018-01-10T01:52:28.485Z,23.75
2018-01-10T01:54:55.556Z,20.80
2018-01-10T01:57:22.516Z,23.35
2018-01-10T01:59:50.224Z,22.60
2018-01-10T02:02:17.174Z,30.75
2018-01-10T02:04:44.108Z,25.00
2018-01-10T02:07:11.061Z,25.05
2018-01-10T02:09:38.005Z,25.05
2018-01-10T02:12:04.952Z,32.05
2018-01-10T02:14:31.892Z,29.33
2018-01-10T02:16:58.874Z,19.87
2018-01-10T02:19:25.805Z,26.15
2018-01-10T02:21:52.747Z,22.92
2018-01-10T02:24:19.687Z,22.90
2018-01-10T02:26:46.621Z,21.75
2018-01-10T02:29:13.576Z,25.23
2018-01-10T02:31:40.513Z,23.40
2018-01-10T02:34:07.460Z,23.08
2018-01-10T02:36:34.404Z,22.40
2018-01-10T02:39:01.346Z,21.73
2018-01-10T02:41:28.304Z,24.55
2018-01-10T02:43:55.273Z,26.62
2018-01-10T02:46:22.226Z,25.50
2018-01-10T02:48:49.932Z,22.75
2018-01-10T02:51:16.884Z,22.20
2018-01-10T02:53:44.667Z,25.65
2018-01-10T02:56:11.632Z,25.02
2018-01-10T02:58:38.574Z,18.08
2018-01-10T03:01:05.536Z,22.95
2018-01-10T03:03:33.241Z,25.23
2018-01-10T03:06:00.192Z,26.37
2018-01-10T03:08:27.134Z,23.30
2018-01-10T03:10:54.092Z,27.98
2018-01-10T03:13:21.025Z,27.20
2018-01-10T03:15:47.964Z,29.87
2018-01-10T03:18:14.904Z,27.80
2018-01-10T03:20:41.888Z,28.45
2018-01-10T03:23:08.857Z,28.83
2018-01-10T03:25:36.572Z,27.15
2018-01-10T03:28:03.505Z,24.58
2018-01-10T03:30:30.459Z,26.58
2018-01-10T03:32:57.388Z,25.75
2018-01-10T03:35:24.341Z,26.95
2018-01-10T03:37:51.277Z,24.50
2018-01-10T03:40:18.228Z,24.90
2018-01-10T03:42:45.165Z,23.67
2018-01-10T03:45:12.124Z,32.83
2018-01-10T03:47:39.052Z,29.35
2018-01-10T03:50:06.010Z,29.30
2018-01-10T03:52:32.945Z,26.33
2018-01-10T03:54:59.897Z,30.65
2018-01-10T03:57:26.850Z,22.77
2018-01-10T03:59:53.814Z,27.25
2018-01-10T04:02:20.748Z,23.27
2018-01-10T04:04:47.712Z,26.90
2018-01-10T04:07:14.644Z,26.00
2018-01-10T04:09:41.595Z,27.70
2018-01-10T04:12:08.523Z,30.27
2018-01-10T04:14:35.472Z,26.95
2018-01-10T04:17:02.413Z,25.25
2018-01-10T04:19:29.369Z,28.70
2018-01-10T04:21:56.304Z,24.73
2018-01-10T04:24:23.262Z,33.55
2018-01-10T04:26:50.209Z,31.17
2018-01-10T04:29:17.160Z,26.75
2018-01-10T04:31:44.104Z,30.83
2018-01-10T04:34:11.060Z,28.38
2018-01-10T04:36:38.002Z,31.25
2018-01-10T04:39:04.955Z,26.10
2018-01-10T04:41:31.893Z,32.45
2018-01-10T04:43:58.844Z,30.80
2018-01-10T04:46:25.788Z,32.75
2018-01-10T04:48:52.751Z,27.52
2018-01-10T04:51:20.449Z,29.52
2018-01-10T04:53:47.404Z,27.45
2018-01-10T04:56:14.348Z,29.60
2018-01-10T04:58:41.290Z,34.28
2018-01-10T05:01:08.213Z,34.42
2018-01-10T05:03:35.120Z,28.67
2018-01-10T05:06:02.041Z,26.10
2018-01-10T05:08:28.948Z,34.28
2018-01-10T05:10:55.873Z,30.90
2018-01-10T05:13:22.780Z,30.37
2018-01-10T05:15:49.739Z,33.03
2018-01-10T05:18:17.405Z,31.95
2018-01-10T05:20:44.322Z,34.42
2018-01-10T05:23:11.239Z,33.50
2018-01-10T05:25:38.235Z,30.27
2018-01-10T05:28:05.143Z,35.22
2018-01-10T05:30:32.084Z,28.23
2018-01-10T05:32:59.008Z,37.53
2018-01-10T05:35:25.930Z,29.58
2018-01-10T05:37:52.833Z,30.92
2018-01-10T05:40:19.752Z,26.35
2018-01-10T05:42:46.667Z,32.47
2018-01-10T05:45:13.597Z,32.00
2018-01-10T05:47:40.511Z,35.33
2018-01-10T05:50:07.452Z,34.53
2018-01-10T05:52:34.381Z,35.72
2018-01-10T05:55:01.338Z,34.95
2018-01-10T05:57:28.248Z,32.65
2018-01-10T05:59:55.940Z,36.58
2018-01-10T06:02:22.848Z,37.22
2018-01-10T06:04:50.541Z,37.90
2018-01-10T06:07:17.454Z,38.00
2018-01-10T06:09:44.382Z,35.47
2018-01-10T06:12:11.294Z,31.87
2018-01-10T06:14:38.220Z,38.80
2018-01-10T06:17:05.125Z,36.55
2018-01-10T06:19:32.055Z,36.10
2018-01-10T06:21:58.964Z,40.22
2018-01-10T06:24:25.889Z,41.58
2018-01-10T06:26:52.794Z,36.08
2018-01-10T06:29:19.725Z,37.15
2018-01-10T06:31:46.628Z,34.05
2018-01-10T06:34:13.548Z,37.58
2018-01-10T06:36:41.220Z,40.72
2018-01-10T06:39:08.149Z,34.33
2018-01-10T06:41:35.828Z,35.40
2018-01-10T06:44:02.777Z,37.33
2018-01-10T06:46:29.681Z,39.97
2018-01-10T06:48:56.612Z,37.95
2018-01-10T06:51:23.526Z,44.72
2018-01-10T06:53:50.452Z,40.33
2018-01-10T06:56:17.364Z,42.42
2018-01-10T06:58:44.292Z,42.05
2018-01-10T07:01:11.206Z,39.67
2018-01-10T07:03:38.141Z,45.10
2018-01-10T07:06:05.044Z,37.55
2018-01-10T07:08:31.971Z,35.60
2018-01-10T07:10:58.885Z,40.05
2018-01-10T07:13:25.810Z,37.63
2018-01-10T07:15:52.737Z,38.33
2018-01-10T07:18:20.427Z,43.63
2018-01-10T07:20:48.353Z,36.20
2018-01-10T07:23:16.048Z,32.85
2018-01-10T07:25:42.956Z,36.03
2018-01-10T07:28:09.880Z,35.75
2018-01-10T07:30:36.798Z,38.17
2018-01-10T07:33:03.720Z,40.05
2018-01-10T07:35:31.541Z,40.00
2018-01-10T07:37:58.461Z,39.63
2018-01-10T07:40:25.371Z,39.38
2018-01-10T07:42:52.290Z,40.40
2018-01-10T07:45:19.200Z,35.38
2018-01-10T07:47:46.124Z,36.15
2018-01-10T07:50:13.032Z,37.97
2018-01-10T07:52:39.971Z,37.88
2018-01-10T07:55:07.670Z,51.15
2018-01-10T07:57:34.615Z,42.88
2018-01-10T08:00:01.526Z,44.08
2018-01-10T08:02:29.218Z,47.72
2018-01-10T08:04:56.128Z,48.28
2018-01-10T08:07:23.067Z,44.45
2018-01-10T08:09:49.991Z,43.42
2018-01-10T08:12:16.913Z,39.60
2018-01-10T08:14:43.828Z,42.85
2018-01-10T08:17:11.693Z,36.15
2018-01-10T08:19:38.605Z,35.13
2018-01-10T08:22:05.536Z,41.88
2018-01-10T08:24:32.441Z,37.78
2018-01-10T08:26:59.370Z,41.97
2018-01-10T08:29:26.280Z,35.58
2018-01-10T08:31:53.205Z,41.95
2018-01-10T08:34:20.112Z,43.47
2018-01-10T08:36:49.001Z,47.85
2018-01-10T08:39:15.912Z,42.65
2018-01-10T08:41:42.835Z,48.38
2018-01-10T08:44:09.739Z,44.55
2018-01-10T08:46:36.671Z,44.78
2018-01-10T08:49:04.346Z,47.53
2018-01-10T08:51:31.282Z,48.50
2018-01-10T08:53:58.187Z,40.47
2018-01-10T08:56:25.121Z,37.20
2018-01-10T08:58:52.028Z,41.35
2018-01-10T09:01:18.956Z,39.58
2018-01-10T09:03:45.869Z,40.58
2018-01-10T09:06:12.792Z,45.72
2018-01-10T09:08:39.700Z,47.03
2018-01-10T09:11:06.617Z,39.53
2018-01-10T09:13:34.289Z,46.33
2018-01-10T09:16:01.994Z,37.72
2018-01-10T09:18:28.901Z,35.72
2018-01-10T09:20:56.597Z,40.10
2018-01-10T09:23:23.516Z,41.47
2018-01-10T09:25:50.449Z,49.35
2018-01-10T09:28:18.148Z,48.70
2018-01-10T09:30:45.092Z,41.70
2018-01-10T09:33:11.991Z,44.85
2018-01-10T09:35:39.667Z,41.22
2018-01-10T09:38:06.596Z,46.95
2018-01-10T09:40:34.274Z,33.90
2018-01-10T09:43:01.193Z,38.80
2018-01-10T09:45:28.109Z,35.70
2018-01-10T09:47:55.821Z,37.95
2018-01-10T09:50:22.724Z,37.33
2018-01-10T09:52:50.412Z,37.35
2018-01-10T09:55:17.325Z,36.35
2018-01-10T09:57:44.473Z,42.83
2018-01-10T10:00:12.164Z,42.83
2018-01-10T10:02:39.084Z,38.22
2018-01-10T10:05:06.753Z,38.10
2018-01-10T10:07:33.680Z,45.78
2018-01-10T10:10:00.608Z,37.95
2018-01-10T10:12:27.536Z,44.08
2018-01-10T10:14:54.440Z,35.42
2018-01-10T10:17:21.366Z,32.15
2018-01-10T10:19:48.281Z,41.85
2018-01-10T10:22:15.208Z,36.75
2018-01-10T10:24:42.117Z,37.83
2018-01-10T10:27:09.041Z,39.75
2018-01-10T10:29:36.717Z,46.37
2018-01-10T10:32:03.649Z,45.03
2018-01-10T10:34:30.567Z,46.75
2018-01-10T10:36:57.501Z,37.75
2018-01-10T10:39:24.407Z,44.25
2018-01-10T10:41:51.327Z,44.58
2018-01-10T10:44:18.250Z,40.55
2018-01-10T10:46:45.186Z,44.00
2018-01-10T10:49:12.107Z,42.40
2018-01-10T10:51:39.041Z,39.17
2018-01-10T10:54:05.957Z,38.08
2018-01-10T10:56:32.880Z,45.30
2018-01-10T10:59:00.563Z,41.53
2018-01-10T11:01:27.492Z,40.03
2018-01-10T11:03:55.176Z,39.92
2018-01-10T11:06:22.105Z,37.22
2018-01-10T11:08:49.025Z,40.88
2018-01-10T11:11:15.948Z,36.92
2018-01-10T11:13:42.852Z,40.80
2018-01-10T11:16:09.784Z,37.17
2018-01-10T11:18:36.700Z,42.50
2018-01-10T11:21:03.620Z,41.13
2018-01-10T11:23:30.549Z,40.10
2018-01-10T11:25:57.475Z,44.00
2018-01-10T11:28:26.252Z,48.17
2018-01-10T11:30:53.165Z,41.13
2018-01-10T11:33:20.111Z,48.10
2018-01-10T11:35:47.020Z,42.25
2018-01-10T11:38:13.946Z,45.58
2018-01-10T11:40:40.860Z,41.90
2018-01-10T11:43:07.792Z,42.97
2018-01-10T11:45:35.480Z,45.50
2018-01-10T11:48:02.416Z,47.20
2018-01-10T11:50:29.334Z,41.05
2018-01-10T11:52:57.028Z,54.80
2018-01-10T11:55:23.931Z,41.63
2018-01-10T11:57:50.859Z,37.30
2018-01-10T12:00:17.794Z,43.17
2018-01-10T12:02:44.743Z,45.58
2018-01-10T12:05:11.656Z,45.17
2018-01-10T12:07:38.571Z,50.53
2018-01-10T12:10:07.245Z,40.70
2018-01-10T12:12:34.937Z,41.72
2018-01-10T12:15:01.852Z,42.83
2018-01-10T12:17:29.537Z,49.90
2018-01-10T12:19:56.451Z,44.58
2018-01-10T12:22:23.376Z,49.80
2018-01-10T12:24:50.292Z,50.45
2018-01-10T12:27:17.268Z,42.40
2018-01-10T12:29:44.176Z,47.95
2018-01-10T12:32:11.104Z,50.95
2018-01-10T12:34:38.023Z,46.47
2018-01-10T12:37:05.736Z,54.33
2018-01-10T12:39:32.655Z,47.67
2018-01-10T12:41:59.584Z,57.35
2018-01-10T12:44:27.282Z,45.72
2018-01-10T12:46:54.192Z,42.28
2018-01-10T12:49:22.890Z,45.25
2018-01-10T12:51:49.804Z,38.42
2018-01-10T12:54:18.509Z,42.70
2018-01-10T12:56:46.196Z,43.25
2018-01-10T12:59:13.128Z,44.03
2018-01-10T13:01:40.066Z,42.35
2018-01-10T13:04:08.790Z,46.25
2018-01-10T13:06:35.699Z,41.00
2018-01-10T13:09:02.627Z,49.38
2018-01-10T13:11:29.552Z,54.35
2018-01-10T13:13:56.478Z,40.05
2018-01-10T13:16:24.368Z,46.88
2018-01-10T13:18:51.289Z,43.15
2018-01-10T13:21:18.213Z,44.80
2018-01-10T13:23:45.165Z,50.08
2018-01-10T13:26:12.124Z,38.15
2018-01-10T13:28:39.065Z,46.58
2018-01-10T13:31:05.984Z,43.92
2018-01-10T13:33:32.928Z,42.70
2018-01-10T13:35:59.841Z,45.55
2018-01-10T13:38:27.540Z,50.63
2018-01-10T13:40:54.449Z,45.85
2018-01-10T13:43:22.136Z,42.65
2018-01-10T13:45:49.038Z,50.75
2018-01-10T13:48:16.746Z,49.47
2018-01-10T13:50:43.682Z,42.88
2018-01-10T13:53:10.606Z,44.95
2018-01-10T13:55:37.508Z,46.72
2018-01-10T13:58:04.446Z,46.30
2018-01-10T14:00:31.349Z,41.80
2018-01-10T14:02:58.272Z,55.90
2018-01-10T14:05:25.950Z,43.03
2018-01-10T14:07:52.869Z,45.05
2018-01-10T14:10:19.796Z,42.62
2018-01-10T14:12:46.733Z,51.95
2018-01-10T14:15:13.636Z,49.90
2018-01-10T14:17:41.503Z,54.80
2018-01-10T14:20:08.413Z,46.72
2018-01-10T14:22:36.108Z,48.72
2018-01-10T14:25:03.027Z,43.60
2018-01-10T14:27:30.734Z,53.30
2018-01-10T14:29:57.649Z,57.33
2018-01-10T14:32:26.544Z,52.60
2018-01-10T14:34:53.492Z,48.67
2018-01-10T14:37:20.431Z,46.28
2018-01-10T14:39:47.357Z,48.13
2018-01-10T14:42:14.280Z,47.13
2018-01-10T14:44:41.188Z,57.60
2018-01-10T14:47:08.102Z,47.47
2018-01-10T14:49:35.042Z,46.25
2018-01-10T14:52:01.968Z,55.50
2018-01-10T14:54:28.885Z,64.35
2018-01-10T14:56:55.969Z,69.43
2018-01-10T14:59:23.654Z,57.75
2018-01-10T15:01:50.617Z,55.88
2018-01-10T15:04:18.578Z,56.08
2018-01-10T15:06:45.514Z,58.13
2018-01-10T15:09:12.460Z,54.55
2018-01-10T15:11:39.393Z,51.60
2018-01-10T15:14:06.366Z,48.45
2018-01-10T15:16:33.272Z,51.70
2018-01-10T15:19:01.204Z,51.42
2018-01-10T15:21:28.122Z,49.80
2018-01-10T15:23:55.064Z,62.20
2018-01-10T15:26:21.996Z,48.85
2018-01-10T15:28:48.920Z,55.92
2018-01-10T15:31:16.772Z,50.08
2018-01-10T15:33:43.689Z,54.88
2018-01-10T15:36:10.596Z,54.72
2018-01-10T15:38:37.579Z,47.03
2018-01-10T15:41:04.526Z,52.60
2018-01-10T15:43:31.432Z,55.70
2018-01-10T15:45:58.373Z,55.58
2018-01-10T15:48:25.304Z,51.53
2018-01-10T15:50:52.221Z,58.20
2018-01-10T15:53:19.178Z,55.33
2018-01-10T15:55:46.110Z,58.40
2018-01-10T15:58:13.949Z,55.60
2018-01-10T16:00:44.621Z,62.65
2018-01-10T16:03:11.532Z,58.78
2018-01-10T16:05:38.470Z,54.75
2018-01-10T16:08:06.176Z,53.87
2018-01-10T16:10:33.147Z,62.03
2018-01-10T16:13:01.064Z,64.90
2018-01-10T16:15:28.004Z,52.28
2018-01-10T16:17:54.908Z,60.60
2018-01-10T16:20:21.853Z,56.40
2018-01-10T16:22:56.054Z,52.80
2018-01-10T16:25:23.025Z,64.95
2018-01-10T16:27:49.967Z,51.13
2018-01-10T16:30:16.944Z,52.65
2018-01-10T16:32:43.892Z,56.17
2018-01-10T16:35:10.828Z,56.30
2018-01-10T16:37:38.708Z,52.28
2018-01-10T16:40:05.645Z,64.47
2018-01-10T16:42:34.497Z,53.97
2018-01-10T16:45:01.474Z,57.67
2018-01-10T16:47:28.448Z,51.78
2018-01-10T16:49:55.384Z,56.72
2018-01-10T16:52:22.321Z,63.83
2018-01-10T16:54:49.267Z,49.63
2018-01-10T16:57:16.222Z,64.18
2018-01-10T16:59:43.160Z,56.28
2018-01-10T17:02:10.651Z,54.75
2018-01-10T17:04:37.603Z,57.75
2018-01-10T17:07:04.547Z,54.55
2018-01-10T17:09:31.680Z,55.70
2018-01-10T17:11:58.615Z,55.97
2018-01-10T17:14:25.527Z,57.42
2018-01-10T17:16:52.445Z,59.00
2018-01-10T17:19:19.402Z,56.47
2018-01-10T17:21:47.117Z,61.35
2018-01-10T17:24:14.040Z,55.53
2018-01-10T17:26:40.969Z,62.33
2018-01-10T17:29:07.901Z,56.13
2018-01-10T17:31:35.608Z,61.90
2018-01-10T17:34:02.532Z,58.28
2018-01-10T17:36:29.452Z,61.13
2018-01-10T17:38:57.125Z,69.90
2018-01-10T17:41:24.056Z,53.45
2018-01-10T17:43:56.528Z,64.28
2018-01-10T17:46:24.268Z,56.88
2018-01-10T17:48:53.096Z,58.05
2018-01-10T17:51:20.101Z,61.72
2018-01-10T17:53:47.006Z,61.58
2018-01-10T17:56:14.090Z,63.80
2018-01-10T17:58:41.038Z,55.17
2018-01-10T18:01:07.966Z,61.40
2018-01-10T18:03:34.901Z,62.13
2018-01-10T18:06:01.829Z,57.92
2018-01-10T18:08:29.525Z,54.80
2018-01-10T18:10:56.441Z,64.80
2018-01-10T18:13:24.150Z,55.53
2018-01-10T18:15:51.168Z,65.50
2018-01-10T18:18:18.102Z,61.30
2018-01-10T18:20:45.789Z,62.62
2018-01-10T18:23:12.710Z,70.20
2018-01-10T18:25:40.424Z,65.70
2018-01-10T18:28:07.329Z,65.45
2018-01-10T18:30:34.268Z,62.05
2018-01-10T18:33:01.168Z,65.32
2018-01-10T18:35:28.110Z,59.42
2018-01-10T18:37:55.021Z,64.53
2018-01-10T18:40:21.947Z,59.92
2018-01-10T18:42:48.859Z,54.67
2018-01-10T18:45:15.783Z,58.47
2018-01-10T18:47:42.689Z,60.70
2018-01-10T18:50:09.651Z,64.30
2018-01-10T18:52:37.472Z,58.38
2018-01-10T18:55:05.174Z,52.03
2018-01-10T18:57:32.098Z,59.20
2018-01-10T18:59:59.040Z,66.50
2018-01-10T19:02:25.949Z,64.55
2018-01-10T19:04:52.881Z,54.67
2018-01-10T19:07:19.791Z,52.90
2018-01-10T19:09:46.724Z,66.28
2018-01-10T19:12:13.652Z,63.03
2018-01-10T19:14:40.577Z,59.55
2018-01-10T19:17:07.502Z,57.13
2018-01-10T19:19:34.424Z,59.95
2018-01-10T19:22:01.344Z,60.30
2018-01-10T19:24:28.322Z,61.65
2018-01-10T19:26:55.252Z,60.25
2018-01-10T19:29:27.098Z,65.32
2018-01-10T19:31:54.012Z,65.85
2018-01-10T19:34:20.995Z,58.05
2018-01-10T19:36:51.337Z,65.65
2018-01-10T19:39:18.272Z,63.78
2018-01-10T19:41:45.201Z,49.83
2018-01-10T19:44:12.140Z,52.88
2018-01-10T19:46:39.057Z,61.65
2018-01-10T19:49:06.009Z,61.25
2018-01-10T19:51:33.951Z,56.40
2018-01-10T19:54:00.892Z,57.78
2018-01-10T19:56:28.560Z,59.42
2018-01-10T19:58:57.274Z,57.72
2018-01-10T20:01:24.216Z,70.60
2018-01-10T20:03:51.146Z,66.87
2018-01-10T20:06:18.078Z,57.88
2018-01-10T20:08:45.042Z,62.10
2018-01-10T20:11:11.979Z,79.47
2018-01-10T20:13:38.905Z,66.15
2018-01-10T20:16:06.610Z,58.72
2018-01-10T20:18:33.553Z,65.25
2018-01-10T20:21:00.496Z,60.00
2018-01-10T20:23:27.432Z,61.78
2018-01-10T20:25:55.373Z,64.85
2018-01-10T20:28:22.301Z,58.00
2018-01-10T20:30:50.165Z,61.17
2018-01-10T20:33:17.121Z,65.30
2018-01-10T20:35:44.035Z,63.83
2018-01-10T20:38:10.977Z,62.85
2018-01-10T20:40:38.889Z,66.25
2018-01-10T20:43:06.901Z,67.35
2018-01-10T20:45:33.904Z,60.80
2018-01-10T20:48:00.833Z,61.37
2018-01-10T20:50:28.541Z,67.60
2018-01-10T20:52:55.467Z,61.53
2018-01-10T20:55:22.447Z,69.95
2018-01-10T20:57:49.372Z,72.32
2018-01-10T21:00:16.301Z,65.12
2018-01-10T21:02:43.227Z,66.57
2018-01-10T21:05:10.922Z,66.05
2018-01-10T21:07:38.915Z,60.95
2018-01-10T21:10:05.884Z,62.05
2018-01-10T21:12:32.816Z,63.85
2018-01-10T21:14:59.757Z,66.20
2018-01-10T21:17:27.695Z,59.53
2018-01-10T21:19:54.665Z,64.95
2018-01-10T21:22:21.627Z,59.13
2018-01-10T21:24:48.544Z,64.10
2018-01-10T21:27:15.501Z,76.22
2018-01-10T21:29:42.429Z,70.22
2018-01-10T21:32:09.389Z,65.70
2018-01-10T21:34:36.317Z,62.22
2018-01-10T21:37:03.249Z,64.22
2018-01-10T21:39:30.160Z,69.45
2018-01-10T21:41:57.869Z,57.95
2018-01-10T21:44:24.782Z,71.37
2018-01-10T21:46:52.092Z,63.55
2018-01-10T21:49:19.044Z,68.53
2018-01-10T21:51:45.977Z,62.75
2018-01-10T21:54:12.894Z,68.93
2018-01-10T21:56:39.816Z,64.65
2018-01-10T21:59:06.729Z,59.15
2018-01-10T22:01:33.661Z,52.45
2018-01-10T22:04:00.570Z,68.55
2018-01-10T22:06:27.528Z,66.50
2018-01-10T22:08:54.456Z,65.85
2018-01-10T22:11:21.390Z,70.70
2018-01-10T22:13:48.308Z,68.43
2018-01-10T22:16:16.006Z,62.88
2018-01-10T22:18:42.917Z,65.32
2018-01-10T22:21:10.610Z,64.03
2018-01-10T22:23:37.540Z,71.50
2018-01-10T22:26:04.485Z,61.42
2018-01-10T22:28:31.396Z,55.80
2018-01-10T22:30:58.330Z,64.45
2018-01-10T22:33:25.258Z,63.45
2018-01-10T22:35:52.199Z,61.80
2018-01-10T22:38:19.104Z,58.03
2018-01-10T22:40:46.033Z,60.42
2018-01-10T22:43:12.952Z,66.03
2018-01-10T22:45:39.877Z,55.95
2018-01-10T22:48:07.714Z,70.45
2018-01-10T22:50:34.645Z,68.00
2018-01-10T22:53:01.556Z,60.75
2018-01-10T22:55:28.492Z,57.20
2018-01-10T22:57:55.396Z,64.85
2018-01-10T23:00:26.330Z,69.43
2018-01-10T23:02:53.260Z,58.30
2018-01-10T23:05:20.169Z,69.53
2018-01-10T23:07:47.106Z,56.78
2018-01-10T23:10:14.056Z,57.90
2018-01-10T23:12:40.977Z,67.07
2018-01-10T23:15:07.896Z,59.83
2018-01-10T23:17:34.813Z,54.58
2018-01-10T23:20:02.509Z,63.70
2018-01-10T23:22:29.424Z,55.15
2018-01-10T23:24:57.119Z,56.45
2018-01-10T23:27:24.045Z,54.63
2018-01-10T23:29:50.984Z,58.65
2018-01-10T23:32:17.937Z,54.92
2018-01-10T23:34:44.858Z,59.70
2018-01-10T23:37:12.537Z,65.25
2018-01-10T23:39:39.469Z,60.10
2018-01-10T23:42:07.145Z,60.10
2018-01-10T23:44:34.084Z,69.05
2018-01-10T23:47:01.009Z,61.28
2018-01-10T23:49:28.699Z,56.47
2018-01-10T23:51:55.611Z,66.00
2018-01-10T23:54:22.564Z,56.60
2018-01-10T23:56:50.257Z,55.42
2018-01-10T23:59:17.194Z,61.13
